Time;durP1;ratioP1;P1;durP2;ratioP2;P2;SDS_P1;SDS_P2;PMS_P1;PMS_P2;Temp;Humidity;BMP_temperature;BMP_pressure;BME280_temperature;BME280_humidity;BME280_pressure;Samples;Min_cycle;Max_cycle;Signal;HPM_P1;HPM_P2
2022/07/23 00:00:33;;;;;;;4.72;4.30;;;;;;;28.89;38.21;100661.09;5073755;28;20047;-75
2022/07/23 00:03:06;;;;;;;4.53;4.13;;;;;;;28.88;38.42;100660.28;5073386;28;20036;-75
2022/07/23 00:05:34;;;;;;;4.95;4.45;;;;;;;28.95;37.43;100654.66;5073455;28;20049;-75
2022/07/23 00:08:05;;;;;;;7.93;4.57;;;;;;;29.13;37.90;100658.63;5072450;28;20049;-75
2022/07/23 00:10:38;;;;;;;5.07;4.57;;;;;;;29.07;37.92;100647.78;5072344;28;20040;-75
2022/07/23 00:13:05;;;;;;;6.78;4.75;;;;;;;28.99;38.46;100657.47;5073444;28;20063;-75
2022/07/23 00:15:33;;;;;;;5.30;4.80;;;;;;;28.91;38.58;100651.03;5073159;28;20037;-74
2022/07/23 00:18:01;;;;;;;5.20;4.65;;;;;;;28.90;38.78;100655.06;5073206;28;20509;-75
2022/07/23 00:20:29;;;;;;;10.35;4.85;;;;;;;28.96;38.50;100656.25;5073094;28;20525;-75
2022/07/23 00:22:57;;;;;;;6.25;4.75;;;;;;;28.95;38.11;100659.47;5073288;28;20052;-74
2022/07/23 00:25:27;;;;;;;6.35;4.93;;;;;;;28.89;38.75;100653.47;5072947;28;20052;-75
2022/07/23 00:27:58;;;;;;;8.02;5.43;;;;;;;28.77;39.50;100645.38;5073145;28;20040;-75
2022/07/23 00:30:29;;;;;;;6.90;4.93;;;;;;;28.67;38.75;100639.38;5072639;28;20037;-75
2022/07/23 00:33:01;;;;;;;7.93;5.10;;;;;;;28.66;39.11;100640.59;5073144;28;20510;-74
2022/07/23 00:35:32;;;;;;;9.15;5.22;;;;;;;28.63;39.40;100647.03;5071508;28;20052;-75
2022/07/23 00:38:01;;;;;;;6.45;5.65;;;;;;;28.60;39.55;100647.84;5088090;28;20072;-74
2022/07/23 00:40:30;;;;;;;5.90;5.30;;;;;;;28.57;40.21;100645.81;5072755;28;20044;-74
2022/07/23 00:42:59;;;;;;;5.38;4.88;;;;;;;28.52;39.86;100649.03;5071210;28;20067;-75
2022/07/23 00:45:27;;;;;;;8.93;4.90;;;;;;;28.48;39.64;100653.88;5071492;28;20053;-74
2022/07/23 00:47:56;;;;;;;5.38;4.65;;;;;;;28.49;40.25;100644.22;5071371;28;20597;-75
2022/07/23 00:50:25;;;;;;;5.95;5.20;;;;;;;28.54;40.60;100657.91;5072725;28;20044;-75
2022/07/23 00:52:54;;;;;;;6.93;5.05;;;;;;;28.51;40.66;100656.69;5071231;28;20036;-74
2022/07/23 00:55:22;;;;;;;6.57;5.22;;;;;;;28.51;40.37;100651.06;5072348;28;20044;-74
2022/07/23 00:57:50;;;;;;;11.07;5.22;;;;;;;28.33;41.23;100659.50;5072024;28;20041;-74
2022/07/23 01:00:18;;;;;;;8.52;5.25;;;;;;;28.33;40.88;100648.25;5071246;28;20044;-74
2022/07/23 01:02:46;;;;;;;5.75;5.20;;;;;;;28.21;41.16;100646.59;5072400;28;20045;-74
2022/07/23 01:05:15;;;;;;;5.82;5.15;;;;;;;28.13;41.61;100651.41;5072260;28;20044;-74
2022/07/23 01:07:45;;;;;;;7.03;5.63;;;;;;;28.12;41.27;100638.56;5071103;28;20036;-74
2022/07/23 01:10:31;;;;;;;7.55;5.53;;;;;;;28.06;42.03;100645.78;5072246;28;20048;-74
2022/07/23 01:13:08;;;;;;;16.17;5.75;;;;;;;27.99;41.87;100638.13;5072328;28;20045;-74
2022/07/23 01:15:38;;;;;;;5.82;5.22;;;;;;;27.93;41.62;100634.13;5070451;28;20048;-74
2022/07/23 01:18:07;;;;;;;7.43;5.63;;;;;;;28.00;41.48;100624.91;5071853;28;20037;-74
2022/07/23 01:20:37;;;;;;;6.97;5.32;;;;;;;27.95;41.36;100616.84;5070965;28;20507;-74
2022/07/23 01:23:06;;;;;;;6.45;5.78;;;;;;;27.87;41.77;100627.28;5071061;28;20055;-74
2022/07/23 01:25:35;;;;;;;8.77;5.75;;;;;;;27.87;42.05;100616.81;5070354;28;20056;-74
2022/07/23 01:28:05;;;;;;;6.90;5.63;;;;;;;27.87;42.14;100616.81;5070946;28;20479;-73
2022/07/23 01:30:34;;;;;;;5.85;5.22;;;;;;;27.84;42.21;100617.63;5070688;28;20414;-74
2022/07/23 01:33:06;;;;;;;7.93;5.65;;;;;;;27.80;43.66;100621.66;5070722;28;20052;-74
2022/07/23 01:35:34;;;;;;;5.80;5.20;;;;;;;27.79;42.69;100615.19;5071520;28;20040;-73
2022/07/23 01:38:05;;;;;;;6.60;5.90;;;;;;;27.80;43.02;100618.84;5070701;28;20047;-74
2022/07/23 01:40:33;;;;;;;7.95;5.60;;;;;;;27.75;43.07;100625.63;5087520;28;20048;-74
2022/07/23 01:43:01;;;;;;;6.78;5.43;;;;;;;27.94;43.08;100634.94;5070600;28;20044;-74
2022/07/23 01:45:31;;;;;;;8.93;5.95;;;;;;;27.92;43.29;100642.94;5070311;28;20048;-75
2022/07/23 01:47:59;;;;;;;6.88;5.57;;;;;;;27.74;43.56;100640.91;5070755;28;20049;-74
2022/07/23 01:50:27;;;;;;;7.47;6.30;;;;;;;27.62;43.79;100640.06;5070348;28;20053;-74
2022/07/23 01:53:14;;;;;;;6.47;5.22;;;;;;;27.41;43.98;100639.97;5071652;28;20037;-75
2022/07/23 01:55:43;;;;;;;6.85;5.88;;;;;;;27.37;43.77;100651.19;5070480;28;20063;-74
2022/07/23 01:58:11;;;;;;;12.93;5.68;;;;;;;27.15;44.63;100650.25;5070446;28;20052;-74
2022/07/23 02:00:39;;;;;;;8.00;5.95;;;;;;;27.05;44.79;100661.06;5070606;28;20060;-74
2022/07/23 02:03:08;;;;;;;9.27;5.85;;;;;;;27.22;44.42;100665.16;5070417;28;20040;-74
2022/07/23 02:05:37;;;;;;;7.80;6.25;;;;;;;27.14;44.53;100676.75;5071641;28;20041;-74
2022/07/23 02:08:05;;;;;;;7.78;5.60;;;;;;;26.96;45.23;100675.44;5070395;28;20048;-74
2022/07/23 02:10:36;;;;;;;9.77;6.07;;;;;;;26.95;45.67;100687.88;5071789;28;20035;-74
2022/07/23 02:13:04;;;;;;;7.63;5.68;;;;;;;26.97;45.19;100693.09;5087370;28;20036;-74
2022/07/23 02:15:32;;;;;;;9.52;6.47;;;;;;;26.93;45.35;100697.88;5071241;28;20616;-74
2022/07/23 02:18:01;;;;;;;8.75;6.50;;;;;;;26.88;45.13;100706.66;5071562;28;20052;-74
2022/07/23 02:20:31;;;;;;;9.18;6.38;;;;;;;26.83;45.65;100696.56;5071533;28;20052;-74
2022/07/23 02:22:59;;;;;;;11.18;6.20;;;;;;;26.78;45.29;100688.53;5053661;28;20045;-74
2022/07/23 02:25:27;;;;;;;7.05;5.80;;;;;;;26.83;45.68;100685.34;5070230;28;20059;-74
2022/07/23 02:28:00;;;;;;;7.15;5.75;;;;;;;26.78;45.25;100689.31;5071667;28;20040;-74
2022/07/23 02:30:29;;;;;;;9.60;6.30;;;;;;;26.74;45.08;100682.06;5071647;28;20040;-74
2022/07/23 02:32:57;;;;;;;8.68;6.75;;;;;;;26.68;45.57;100690.84;5073999;28;20048;-74
2022/07/23 02:35:25;;;;;;;9.23;6.53;;;;;;;26.70;45.66;100688.44;5073934;28;20056;-74
2022/07/23 02:37:53;;;;;;;9.10;6.40;;;;;;;26.64;45.55;100692.03;5073891;28;20036;-74
2022/07/23 02:40:21;;;;;;;10.13;6.13;;;;;;;26.72;45.22;100696.50;5073936;28;20048;-74
2022/07/23 02:42:49;;;;;;;9.13;5.95;;;;;;;26.71;45.41;100686.47;5056768;28;20399;-74
2022/07/23 02:45:17;;;;;;;7.18;5.80;;;;;;;26.68;45.53;100690.03;5074830;28;20048;-74
2022/07/23 02:47:45;;;;;;;6.47;5.82;;;;;;;26.63;45.26;100688.41;5073428;28;20037;-74
2022/07/23 02:50:13;;;;;;;8.75;5.90;;;;;;;26.71;45.39;100697.69;5075014;28;20049;-74
2022/07/23 02:52:41;;;;;;;7.22;6.43;;;;;;;26.80;44.54;100689.75;5074850;28;20048;-74
2022/07/23 02:55:09;;;;;;;9.77;6.10;;;;;;;26.81;44.64;100685.75;5074807;28;20037;-74
2022/07/23 02:57:37;;;;;;;10.57;6.55;;;;;;;26.85;44.88;100685.78;5074602;28;20505;-74
2022/07/23 03:00:06;;;;;;;8.93;6.07;;;;;;;26.90;45.73;100684.59;5074875;28;20036;-74
2022/07/23 03:02:35;;;;;;;6.82;5.75;;;;;;;26.67;45.90;100691.22;5073527;28;20041;-74
2022/07/23 03:05:03;;;;;;;9.30;6.28;;;;;;;26.64;45.30;100692.03;5074663;28;20063;-74
2022/07/23 03:07:31;;;;;;;8.30;6.13;;;;;;;26.52;45.90;100693.94;5073343;28;20051;-74
2022/07/23 03:09:59;;;;;;;6.47;5.78;;;;;;;26.44;45.94;100692.25;5073309;28;20040;-74
2022/07/23 03:12:27;;;;;;;8.07;6.10;;;;;;;26.52;45.53;100691.13;5074481;28;20518;-74
2022/07/23 03:14:55;;;;;;;6.68;5.32;;;;;;;26.49;46.12;100693.91;5074181;28;20056;-74
2022/07/23 03:17:23;;;;;;;6.35;5.75;;;;;;;26.58;43.80;100693.59;5074198;28;20044;-74
2022/07/23 03:19:51;;;;;;;6.55;5.40;;;;;;;26.50;44.71;100690.72;5072554;28;20052;-74
2022/07/23 03:22:19;;;;;;;6.68;5.30;;;;;;;26.52;43.94;100685.53;5089655;28;20341;-74
2022/07/23 03:24:53;;;;;;;7.97;5.50;;;;;;;26.42;44.05;100684.25;5056783;28;20052;-74
2022/07/23 03:27:30;;;;;;;8.43;5.47;;;;;;;26.51;43.67;100678.28;5072959;28;20048;-74
2022/07/23 03:29:59;;;;;;;6.47;5.03;;;;;;;26.53;43.97;100683.50;5073118;28;20051;-74
2022/07/23 03:32:27;;;;;;;6.80;5.68;;;;;;;26.39;44.03;100681.41;5072785;28;20399;-74
2022/07/23 03:34:56;;;;;;;5.72;5.07;;;;;;;26.35;44.08;100689.78;5074173;28;20529;-74
2022/07/23 03:37:24;;;;;;;6.07;5.47;;;;;;;26.30;44.27;100692.94;5073825;28;20041;-74
2022/07/23 03:39:52;;;;;;;6.22;4.82;;;;;;;26.46;44.07;100695.47;5073898;28;20044;-74
2022/07/23 03:42:20;;;;;;;7.00;5.00;;;;;;;26.54;43.63;100688.72;5072290;28;20036;-74
2022/07/23 03:44:48;;;;;;;5.90;5.38;;;;;;;26.41;44.12;100690.22;5071766;28;20487;-74
2022/07/23 03:47:17;;;;;;;6.03;5.30;;;;;;;26.32;44.66;100696.16;5066716;28;20049;-74
2022/07/23 03:49:45;;;;;;;6.88;4.80;;;;;;;26.46;44.49;100694.66;5060103;28;20041;-74
2022/07/23 03:52:13;;;;;;;5.65;5.05;;;;;;;26.41;44.35;100682.63;5065932;28;20044;-74
2022/07/23 03:54:41;;;;;;;7.35;5.40;;;;;;;26.32;45.54;100689.72;5072031;28;20044;-74
2022/07/23 03:57:09;;;;;;;6.10;5.05;;;;;;;26.24;45.09;100689.66;5064224;28;20036;-74
2022/07/23 03:59:37;;;;;;;7.70;5.55;;;;;;;26.22;45.13;100692.03;5089113;28;20041;-74
2022/07/23 04:02:05;;;;;;;5.70;5.18;;;;;;;26.22;44.84;100691.22;5065359;28;20052;-74
2022/07/23 04:04:33;;;;;;;6.43;4.93;;;;;;;26.22;44.75;100691.22;5062888;28;20055;-74
2022/07/23 04:07:01;;;;;;;7.25;5.07;;;;;;;26.24;44.35;100694.50;5063191;28;20059;-74
2022/07/23 04:09:31;;;;;;;5.68;4.68;;;;;;;26.43;43.96;100701.84;5089174;28;20052;-74
2022/07/23 04:11:59;;;;;;;6.75;5.57;;;;;;;26.66;44.54;100703.66;5073114;28;20055;-74
2022/07/23 04:14:27;;;;;;;7.45;5.15;;;;;;;26.60;44.51;100706.03;5071858;28;20040;-73
2022/07/23 04:16:55;;;;;;;6.45;5.30;;;;;;;26.57;44.79;100706.78;5071985;28;20040;-73
2022/07/23 04:19:23;;;;;;;7.13;5.10;;;;;;;26.52;44.50;100707.97;5073209;28;20048;-74
2022/07/23 04:22:01;;;;;;;8.02;5.38;;;;;;;26.47;44.84;100713.09;5072022;28;20045;-73
2022/07/23 04:24:31;;;;;;;7.32;5.57;;;;;;;26.27;44.73;100711.34;5088903;28;20041;-73
2022/07/23 04:26:59;;;;;;;7.95;4.97;;;;;;;26.16;45.50;100716.00;5088582;28;20068;-74
2022/07/23 04:29:26;;;;;;;6.82;5.35;;;;;;;26.09;45.55;100721.53;5055139;28;20060;-73
2022/07/23 04:31:55;;;;;;;8.43;5.55;;;;;;;26.00;46.23;100714.22;5072948;28;20056;-74
2022/07/23 04:34:23;;;;;;;7.65;5.70;;;;;;;25.97;46.70;100711.38;5051863;28;20499;-74
2022/07/23 04:36:50;;;;;;;13.18;6.15;;;;;;;26.03;46.78;100716.28;5064155;28;20052;-75
2022/07/23 04:39:18;;;;;;;10.43;5.65;;;;;;;26.37;46.32;100709.00;5071463;28;20479;-74
2022/07/23 04:41:47;;;;;;;8.00;6.18;;;;;;;26.61;46.29;100712.44;5071129;28;20029;-74
2022/07/23 04:44:19;;;;;;;7.72;6.13;;;;;;;26.68;45.48;100709.69;5070063;28;20410;-74
2022/07/23 04:46:48;;;;;;;7.88;6.32;;;;;;;26.91;45.16;100708.66;5054810;28;20051;-74
2022/07/23 04:49:17;;;;;;;8.75;6.28;;;;;;;26.87;45.01;100714.25;5071025;28;20043;-73
2022/07/23 04:51:46;;;;;;;9.13;6.03;;;;;;;27.00;44.43;100708.34;5071567;28;20041;-74
2022/07/23 04:54:17;;;;;;;8.82;5.38;;;;;;;27.03;44.27;100699.16;5070922;28;20052;-74
2022/07/23 04:56:45;;;;;;;8.10;5.72;;;;;;;27.00;44.15;100700.75;5054082;28;20063;-73
2022/07/23 04:59:13;;;;;;;6.35;5.35;;;;;;;27.06;43.70;100704.78;5072224;28;20048;-73
2022/07/23 05:01:42;;;;;;;7.82;5.82;;;;;;;27.09;43.96;100709.59;5054633;28;20052;-73
2022/07/23 05:04:11;;;;;;;7.63;5.32;;;;;;;27.23;43.64;100702.50;5071299;28;20044;-74
2022/07/23 05:06:40;;;;;;;8.75;5.88;;;;;;;27.30;43.92;100704.50;5054248;28;20049;-73
2022/07/23 05:09:07;;;;;;;8.90;5.68;;;;;;;27.36;43.62;100706.56;5070967;28;20047;-73
2022/07/23 05:11:36;;;;;;;6.68;5.35;;;;;;;27.56;43.16;100700.63;5054257;28;20399;-72
2022/07/23 05:14:04;;;;;;;5.95;5.13;;;;;;;27.72;41.63;100705.16;5071216;28;20052;-72
2022/07/23 05:16:32;;;;;;;6.90;5.35;;;;;;;27.83;41.32;100702.38;5071079;28;20052;-73
2022/07/23 05:19:05;;;;;;;9.15;5.43;;;;;;;27.77;41.05;100704.78;5070996;28;20048;-73
2022/07/23 05:21:35;;;;;;;8.38;5.10;;;;;;;27.88;41.05;100702.81;5071029;28;20062;-73
2022/07/23 05:24:04;;;;;;;5.75;5.15;;;;;;;27.82;40.40;100704.38;5070877;28;20052;-73
2022/07/23 05:26:32;;;;;;;6.28;5.40;;;;;;;27.95;40.78;100701.22;5070874;28;20040;-73
2022/07/23 05:29:00;;;;;;;6.13;5.53;;;;;;;28.13;40.81;100704.88;5072087;28;20040;-73
2022/07/23 05:31:28;;;;;;;9.85;5.45;;;;;;;28.10;40.74;100702.84;5071037;28;20040;-73
2022/07/23 05:33:57;;;;;;;8.38;5.53;;;;;;;28.24;40.13;100707.72;5070838;28;20052;-73
2022/07/23 05:36:26;;;;;;;11.90;5.68;;;;;;;28.48;40.44;100715.81;5070834;28;20041;-73
2022/07/23 05:38:56;;;;;;;9.35;5.70;;;;;;;28.63;40.31;100703.31;5070561;28;20047;-73
2022/07/23 05:41:26;;;;;;;9.35;5.80;;;;;;;28.55;41.07;100718.63;5087636;28;20059;-73
2022/07/23 05:43:55;;;;;;;8.10;6.43;;;;;;;28.59;41.01;100707.34;5054218;28;20049;-73
2022/07/23 05:46:23;;;;;;;8.18;6.57;;;;;;;28.58;41.36;100706.53;5070805;28;20048;-73
2022/07/23 05:48:56;;;;;;;9.93;6.23;;;;;;;28.51;41.38;100703.72;5070816;28;20045;-73
2022/07/23 05:51:45;;;;;;;7.45;6.18;;;;;;;28.67;41.18;100709.75;5072000;28;20044;-73
2022/07/23 05:54:15;;;;;;;11.20;5.97;;;;;;;28.73;41.08;100712.97;5070459;28;20044;-73
2022/07/23 05:56:43;;;;;;;7.38;6.20;;;;;;;28.88;39.91;100718.63;5071813;28;20055;-73
2022/07/23 05:59:13;;;;;;;8.63;6.57;;;;;;;29.05;39.70;100714.16;5070504;28;20052;-73
2022/07/23 06:01:41;;;;;;;6.97;6.15;;;;;;;29.15;39.11;100713.34;5071625;28;20043;-74
2022/07/23 06:04:11;;;;;;;8.68;6.30;;;;;;;29.34;39.34;100717.75;5070516;28;20072;-74
2022/07/23 06:06:45;;;;;;;7.43;5.72;;;;;;;29.39;39.02;100724.97;5074079;28;20049;-73
2022/07/23 06:09:13;;;;;;;7.90;6.25;;;;;;;29.59;38.67;100714.06;5074739;28;20047;-74
2022/07/23 06:11:42;;;;;;;8.10;5.97;;;;;;;29.76;38.72;100722.84;5058165;28;20044;-73
2022/07/23 06:14:10;;;;;;;6.80;5.53;;;;;;;30.01;37.93;100722.69;5074491;28;20049;-73
2022/07/23 06:16:57;;;;;;;7.70;5.85;;;;;;;30.06;38.04;100715.03;5060470;28;20491;-74
2022/07/23 06:19:26;;;;;;;8.27;6.07;;;;;;;30.11;37.46;100729.50;5074329;28;20044;-73
2022/07/23 06:21:54;;;;;;;9.70;5.88;;;;;;;30.25;36.87;100731.44;5057784;28;20052;-74
2022/07/23 06:24:23;;;;;;;10.32;6.22;;;;;;;30.27;37.33;100723.38;5074153;28;20055;-73
2022/07/23 06:26:51;;;;;;;7.00;6.05;;;;;;;30.48;37.05;100732.13;5085956;28;20044;-74
2022/07/23 06:29:19;;;;;;;6.75;5.88;;;;;;;30.49;37.11;100728.88;5072530;28;20056;-74
2022/07/23 06:31:47;;;;;;;9.13;6.07;;;;;;;30.49;37.36;100728.06;5072908;28;20059;-73
2022/07/23 06:34:15;;;;;;;7.35;5.95;;;;;;;30.55;37.28;100730.03;5073223;28;20067;-74
2022/07/23 06:36:43;;;;;;;6.15;5.45;;;;;;;30.70;36.79;100738.41;5073885;28;20036;-74
2022/07/23 06:39:12;;;;;;;8.90;5.70;;;;;;;30.77;36.83;100738.34;5073547;28;20402;-74
2022/07/23 06:41:47;;;;;;;10.48;6.10;;;;;;;30.70;37.17;100738.41;5071512;28;20051;-73
2022/07/23 06:44:21;;;;;;;10.52;5.90;;;;;;;30.77;36.74;100744.00;5073050;28;20060;-73
2022/07/23 06:46:49;;;;;;;8.02;5.68;;;;;;;30.84;36.65;100743.94;5073700;28;20040;-75
2022/07/23 06:49:18;;;;;;;6.88;5.30;;;;;;;30.93;36.22;100748.31;5074386;28;20499;-75
2022/07/23 06:51:46;;;;;;;7.47;5.55;;;;;;;31.04;35.67;100740.50;5071740;28;20059;-74
2022/07/23 06:54:14;;;;;;;10.52;5.85;;;;;;;31.13;34.55;100750.53;5074186;28;20487;-74
2022/07/23 06:56:43;;;;;;;8.82;5.90;;;;;;;31.18;35.02;100759.34;5089989;28;20368;-73
2022/07/23 06:59:11;;;;;;;7.97;5.65;;;;;;;31.22;35.16;100751.66;5072931;28;20467;-74
2022/07/23 07:01:43;;;;;;;7.35;6.25;;;;;;;31.23;34.93;100764.56;5073959;28;20039;-73
2022/07/23 07:04:11;;;;;;;8.73;6.07;;;;;;;31.27;34.70;100746.75;5074768;28;20052;-75
2022/07/23 07:06:39;;;;;;;8.00;5.93;;;;;;;31.46;34.07;100759.50;5074317;28;20032;-73
2022/07/23 07:09:07;;;;;;;7.32;6.00;;;;;;;31.53;34.08;100753.78;5073865;28;20048;-73
2022/07/23 07:11:35;;;;;;;6.15;5.40;;;;;;;31.65;33.99;100763.72;5074945;28;20498;-75
2022/07/23 07:14:04;;;;;;;6.53;5.93;;;;;;;31.73;33.69;100772.94;5050493;28;20066;-75
2022/07/23 07:16:34;;;;;;;7.80;6.00;;;;;;;31.66;33.63;100768.16;5075068;28;20118;-75
2022/07/23 07:19:02;;;;;;;6.90;5.75;;;;;;;31.58;33.73;100756.16;5066826;28;20053;-73
2022/07/23 07:21:31;;;;;;;7.43;5.82;;;;;;;31.87;33.58;100774.81;5062661;28;20483;-74
2022/07/23 07:23:59;;;;;;;8.63;6.70;;;;;;;31.95;33.18;100769.88;5069891;28;20049;-74
2022/07/23 07:26:27;;;;;;;10.25;7.60;;;;;;;31.76;32.87;100778.53;5073091;28;20048;-75
2022/07/23 07:28:55;;;;;;;7.20;6.47;;;;;;;31.67;33.14;100763.31;5073807;28;20398;-75
2022/07/23 07:31:23;;;;;;;8.82;7.03;;;;;;;31.80;32.93;100772.03;5075138;28;20044;-75
2022/07/23 07:33:52;;;;;;;7.57;6.55;;;;;;;31.85;32.99;100769.56;5078155;28;20051;-75
2022/07/23 07:36:20;;;;;;;11.25;7.45;;;;;;;31.87;33.36;100771.97;5080216;28;20498;-75
2022/07/23 07:38:48;;;;;;;7.90;6.72;;;;;;;32.01;34.37;100780.25;5070335;28;20055;-75
2022/07/23 07:41:16;;;;;;;10.30;6.32;;;;;;;32.13;33.81;100778.91;5067924;28;20040;-73
2022/07/23 07:43:44;;;;;;;12.77;7.28;;;;;;;32.13;33.75;100778.91;5065446;28;20056;-74
2022/07/23 07:46:12;;;;;;;9.23;7.10;;;;;;;31.97;34.10;100776.69;5068374;28;20060;-74
2022/07/23 07:48:41;;;;;;;8.45;6.97;;;;;;;32.02;33.59;100772.59;5069558;28;20052;-75
2022/07/23 07:51:09;;;;;;;7.85;6.90;;;;;;;32.26;33.42;100769.84;5068239;28;20483;-74
2022/07/23 07:53:37;;;;;;;8.80;7.43;;;;;;;32.04;33.26;100770.13;5075720;28;20402;-74
2022/07/23 07:56:05;;;;;;;10.73;8.32;;;;;;;32.07;33.60;100772.13;5076255;28;20044;-75
2022/07/23 07:58:33;;;;;;;9.75;7.80;;;;;;;32.02;33.81;100778.25;5072873;28;20056;-74
2022/07/23 08:01:02;;;;;;;12.18;8.13;;;;;;;32.20;33.70;100771.53;5076310;28;20040;-74
2022/07/23 08:03:30;;;;;;;8.75;7.20;;;;;;;32.31;33.23;100775.81;5068428;28;20045;-74
2022/07/23 08:06:03;;;;;;;10.98;8.30;;;;;;;32.47;33.47;100773.59;5070660;28;20045;-75
2022/07/23 08:08:31;;;;;;;13.48;8.68;;;;;;;32.51;32.76;100777.97;5067075;28;20041;-75
2022/07/23 08:10:59;;;;;;;14.85;8.07;;;;;;;32.62;33.14;100777.00;5071994;28;20056;-74
2022/07/23 08:13:28;;;;;;;8.85;7.93;;;;;;;32.89;33.42;100774.09;5067567;28;20490;-75
2022/07/23 08:15:56;;;;;;;13.00;9.07;;;;;;;32.91;32.45;100780.16;5069903;28;20608;-75
2022/07/23 08:18:24;;;;;;;12.05;9.63;;;;;;;32.81;32.28;100775.47;5069521;28;20049;-74
2022/07/23 08:20:55;;;;;;;10.65;8.70;;;;;;;33.02;32.09;100776.38;5070192;28;20044;-75
2022/07/23 08:23:23;;;;;;;12.52;8.45;;;;;;;32.94;32.62;100773.63;5074141;28;20123;-75
2022/07/23 08:25:57;;;;;;;12.95;9.00;;;;;;;32.80;32.65;100776.72;5070998;28;20040;-75
2022/07/23 08:28:26;;;;;;;13.15;9.93;;;;;;;32.62;33.15;100779.81;5073104;28;20044;-75
2022/07/23 08:30:54;;;;;;;12.68;9.52;;;;;;;32.43;33.83;100780.13;5073789;28;20045;-75
2022/07/23 08:33:22;;;;;;;13.00;9.05;;;;;;;32.61;33.32;100779.03;5071674;28;20048;-73
2022/07/23 08:36:03;;;;;;;11.95;9.20;;;;;;;32.64;32.33;100783.03;5070063;28;20045;-73
2022/07/23 08:38:33;;;;;;;12.02;10.05;;;;;;;32.74;32.64;100779.22;5071302;28;20051;-73
2022/07/23 08:41:02;;;;;;;14.20;9.90;;;;;;;32.91;32.62;100768.00;5062088;28;20056;-74
2022/07/23 08:43:33;;;;;;;12.68;10.35;;;;;;;33.14;32.97;100774.94;5062685;28;20056;-74
2022/07/23 08:46:02;;;;;;;14.05;10.30;;;;;;;33.17;32.74;100763.53;5077085;28;20059;-74
2022/07/23 08:48:33;;;;;;;13.13;9.98;;;;;;;33.14;33.34;100770.06;5069015;28;20033;-73
2022/07/23 08:51:04;;;;;;;11.55;9.52;;;;;;;33.32;32.55;100778.22;5065059;28;20045;-73
2022/07/23 08:53:35;;;;;;;14.27;10.23;;;;;;;33.51;31.02;100770.19;5058952;28;20041;-74
2022/07/23 08:56:04;;;;;;;13.18;9.93;;;;;;;33.57;30.95;100767.66;5063162;28;20086;-73
2022/07/23 08:58:32;;;;;;;13.88;10.40;;;;;;;33.66;31.47;100761.41;5060935;28;20051;-74
2022/07/23 09:01:01;;;;;;;12.40;9.45;;;;;;;33.80;31.62;100768.81;5062599;28;20108;-75
2022/07/23 09:03:32;;;;;;;16.50;11.02;;;;;;;33.81;31.23;100770.41;5059994;28;20048;-74
2022/07/23 09:06:02;;;;;;;14.85;9.85;;;;;;;33.83;31.15;100760.22;5066079;28;20045;-74
2022/07/23 09:08:46;;;;;;;11.77;9.38;;;;;;;33.80;30.01;100763.94;5068230;28;20049;-73
2022/07/23 09:11:18;;;;;;;12.05;9.88;;;;;;;34.00;30.24;100766.75;5071907;28;20056;-74
2022/07/23 09:13:52;;;;;;;15.32;9.82;;;;;;;34.30;29.54;100762.03;5069963;28;20051;-74
2022/07/23 09:16:31;;;;;;;12.32;9.98;;;;;;;34.40;29.36;100757.34;5071218;28;20509;-74
2022/07/23 09:19:05;;;;;;;11.90;9.48;;;;;;;34.32;29.90;100747.41;5071645;28;20037;-74
2022/07/23 09:21:38;;;;;;;12.25;9.20;;;;;;;34.39;28.06;100757.78;5071744;28;20052;-74
2022/07/23 09:24:09;;;;;;;11.00;9.10;;;;;;;34.50;27.91;100749.78;5069190;28;20052;-74
2022/07/23 09:26:42;;;;;;;11.48;9.07;;;;;;;34.69;27.10;100744.50;5071402;28;20036;-74
2022/07/23 09:29:22;;;;;;;9.35;8.32;;;;;;;34.84;27.33;100736.41;5069205;28;20715;-73
2022/07/23 09:32:04;;;;;;;13.88;9.40;;;;;;;34.88;26.35;100739.94;5066648;28;20047;-74
2022/07/23 09:34:40;;;;;;;10.00;8.60;;;;;;;35.16;26.18;100731.94;5064637;28;20487;-73
2022/07/23 09:37:13;;;;;;;10.73;8.70;;;;;;;35.14;25.41;100730.78;5061038;28;20049;-73
2022/07/23 09:39:45;;;;;;;11.30;9.43;;;;;;;35.23;25.94;100734.56;5068436;28;20049;-73
2022/07/23 09:42:20;;;;;;;11.13;7.70;;;;;;;35.37;25.47;100724.81;5068030;28;20405;-74
2022/07/23 09:44:58;;;;;;;10.32;8.20;;;;;;;35.44;25.52;100726.69;5068503;28;20040;-74
2022/07/23 09:47:31;;;;;;;11.63;9.15;;;;;;;35.45;26.22;100721.78;5066574;28;20067;-73
2022/07/23 09:50:05;;;;;;;11.70;8.73;;;;;;;35.66;24.56;100725.28;5064238;28;20053;-73
2022/07/23 09:52:44;;;;;;;10.02;7.70;;;;;;;35.59;22.53;100727.06;5067077;28;20041;-74
2022/07/23 09:55:12;;;;;;;11.05;6.93;;;;;;;35.60;23.14;100713.63;5066563;28;20047;-74
2022/07/23 09:57:44;;;;;;;9.75;7.68;;;;;;;35.56;23.38;100719.41;5068418;28;20047;-73
2022/07/23 10:00:13;;;;;;;9.82;7.55;;;;;;;35.58;21.57;100714.06;5067527;28;20045;-74
2022/07/23 10:02:44;;;;;;;9.55;6.40;;;;;;;35.73;21.07;100722.22;5059944;28;20653;-73
2022/07/23 10:05:28;;;;;;;8.02;6.55;;;;;;;35.66;21.23;100716.75;5071322;28;20039;-74
2022/07/23 10:08:31;;;;;;;6.90;5.88;;;;;;;35.82;20.32;100705.22;5044861;28;20057;-73
2022/07/23 10:11:17;;;;;;;8.75;6.22;;;;;;;36.06;20.39;100707.75;5070357;28;20056;-74
2022/07/23 10:14:05;;;;;;;6.28;4.50;;;;;;;35.86;19.01;100703.09;5069364;28;20048;-73
2022/07/23 10:16:49;;;;;;;4.68;3.70;;;;;;;35.70;18.82;100704.00;5069767;28;20403;-73
2022/07/23 10:19:18;;;;;;;5.18;4.28;;;;;;;35.62;18.88;100694.09;5063265;28;20672;-73
2022/07/23 10:21:57;;;;;;;6.55;5.30;;;;;;;35.56;19.92;100702.34;5071606;28;20040;-74
2022/07/23 10:24:45;;;;;;;12.05;6.20;;;;;;;35.57;20.97;100712.47;5058765;28;20514;-75
2022/07/23 10:27:31;;;;;;;8.02;5.55;;;;;;;35.60;20.97;100717.28;5068268;28;20044;-74
2022/07/23 10:30:04;;;;;;;5.93;4.93;;;;;;;35.78;20.89;100699.66;5070830;28;20048;-74
2022/07/23 10:33:09;;;;;;;6.18;5.28;;;;;;;36.05;20.14;100703.31;5063760;28;20047;-74
2022/07/23 10:36:20;;;;;;;4.90;4.40;;;;;;;36.08;19.11;100699.56;5065707;28;20056;-75
2022/07/23 10:38:58;;;;;;;4.22;3.83;;;;;;;36.14;19.33;100700.63;5027508;28;20045;-74
2022/07/23 10:41:34;;;;;;;4.78;4.38;;;;;;;36.44;19.15;100704.09;5062014;28;20053;-75
2022/07/23 10:44:17;;;;;;;5.40;4.90;;;;;;;36.74;19.55;100701.09;5066775;28;20052;-76
2022/07/23 10:49:37;;;;;;;6.20;5.28;;;;;;;37.27;19.58;100699.63;5062672;28;20048;-75
2022/07/23 10:52:14;;;;;;;6.22;5.40;;;;;;;37.33;20.08;100697.00;5067714;28;20059;-75
2022/07/23 10:55:15;;;;;;;6.72;6.03;;;;;;;37.64;19.67;100699.09;5073127;28;20052;-74
2022/07/23 10:57:50;;;;;;;6.97;5.68;;;;;;;37.76;19.41;100703.91;5053701;28;20057;-74
2022/07/23 11:00:25;;;;;;;5.53;4.90;;;;;;;37.75;18.84;100699.47;5053403;28;20045;-73
2022/07/23 11:02:59;;;;;;;5.35;4.80;;;;;;;37.72;20.01;100693.91;5053568;28;20049;-74
2022/07/23 11:05:47;;;;;;;6.13;5.45;;;;;;;37.52;20.67;100695.03;5053327;28;20029;-73
2022/07/23 11:08:19;;;;;;;6.00;5.40;;;;;;;37.82;20.38;100683.31;5068146;28;20067;-74
2022/07/23 11:11:07;;;;;;;6.60;5.10;;;;;;;37.17;20.76;100678.81;5074441;28;20367;-74
2022/07/23 11:13:38;;;;;;;5.03;4.30;;;;;;;37.49;20.49;100688.19;5074027;28;20063;-74
2022/07/23 11:16:13;;;;;;;6.75;5.90;;;;;;;37.69;22.19;100678.50;5074187;28;20037;-73
2022/07/23 11:18:43;;;;;;;6.45;5.80;;;;;;;38.02;22.26;100666.56;5073935;28;20040;-73
2022/07/23 11:21:21;;;;;;;5.50;4.90;;;;;;;38.00;21.79;100663.41;5074124;28;20044;-73
2022/07/23 11:24:14;;;;;;;7.05;6.13;;;;;;;37.73;22.22;100658.38;5073989;28;20051;-73
2022/07/23 11:26:52;;;;;;;10.38;6.70;;;;;;;38.26;22.15;100660.31;5074073;28;20044;-73
2022/07/23 11:29:27;;;;;;;8.48;6.65;;;;;;;38.37;22.27;100657.00;5073971;28;20052;-74
2022/07/23 11:32:05;;;;;;;6.30;5.63;;;;;;;38.93;21.52;100661.94;5073999;28;20044;-74
2022/07/23 11:34:47;;;;;;;7.65;5.75;;;;;;;38.91;21.53;100653.88;5073946;28;20414;-75
2022/07/23 11:37:35;;;;;;;6.43;5.65;;;;;;;38.52;21.66;100651.47;5073678;28;20051;-74
2022/07/23 11:40:14;;;;;;;9.80;6.22;;;;;;;38.51;22.08;100651.94;5072679;28;20045;-75
2022/07/23 11:43:04;;;;;;;8.45;5.60;;;;;;;38.51;21.60;100661.28;5089052;28;20037;-74
2022/07/23 11:45:36;;;;;;;6.30;5.45;;;;;;;38.56;21.20;100646.41;5073689;28;20044;-74